Time;durP1;ratioP1;P1;durP2;ratioP2;P2;SDS_P1;SDS_P2;PMS_P1;PMS_P2;Temp;Humidity;BMP_temperature;BMP_pressure;BME280_temperature;BME280_humidity;BME280_pressure;Samples;Min_cycle;Max_cycle;Signal;HPM_P1;HPM_P2
2023/10/18 00:02:16;;;;;;;9.83;6.97;;;;;;;;;;5011770;28;20507;-55
2023/10/18 00:04:43;;;;;;;8.53;7.47;;;;;;;;;;5011509;28;20202;-55
2023/10/18 00:07:12;;;;;;;8.37;7.40;;;;;;;;;;5011215;28;20486;-56
2023/10/18 00:09:49;;;;;;;7.90;7.10;;;;;;;;;;5011358;28;20451;-55
2023/10/18 00:12:16;;;;;;;7.50;6.50;;;;;;;;;;5011516;28;20209;-55
2023/10/18 00:14:43;;;;;;;8.97;7.10;;;;;;;;;;5011229;28;20884;-55
2023/10/18 00:17:10;;;;;;;10.23;7.50;;;;;;;;;;5011494;28;20919;-55
2023/10/18 00:19:36;;;;;;;8.67;7.33;;;;;;;;;;5010887;28;20467;-55
2023/10/18 00:22:03;;;;;;;9.67;6.70;;;;;;;;;;5011555;28;20429;-56
2023/10/18 00:24:30;;;;;;;8.17;6.60;;;;;;;;;;5011238;28;20527;-56
2023/10/18 00:26:56;;;;;;;7.77;6.67;;;;;;;;;;5011522;28;20437;-55
2023/10/18 00:29:22;;;;;;;8.57;6.67;;;;;;;;;;5011275;28;20780;-55
2023/10/18 00:31:48;;;;;;;8.73;7.30;;;;;;;;;;5010718;28;20459;-56
2023/10/18 00:34:14;;;;;;;8.60;7.10;;;;;;;;;;5010595;28;20296;-55
2023/10/18 00:36:40;;;;;;;6.97;6.20;;;;;;;;;;5011185;28;20511;-55
2023/10/18 00:39:27;;;;;;;8.87;6.90;;;;;;;;;;5011420;28;20228;-56
2023/10/18 00:41:55;;;;;;;9.10;7.27;;;;;;;;;;5010976;28;20468;-56
2023/10/18 00:44:22;;;;;;;8.33;6.47;;;;;;;;;;5010638;28;20953;-56
2023/10/18 00:46:48;;;;;;;8.60;7.07;;;;;;;;;;5014169;28;20443;-57
2023/10/18 00:49:14;;;;;;;7.73;6.60;;;;;;;;;;5011255;28;20436;-56
2023/10/18 00:51:40;;;;;;;8.47;6.93;;;;;;;;;;5012909;28;21000;-56
2023/10/18 00:54:10;;;;;;;9.23;6.60;;;;;;;;;;5014455;28;20528;-57
2023/10/18 00:56:38;;;;;;;8.70;7.07;;;;;;;;;;5014447;28;20439;-57
2023/10/18 00:59:18;;;;;;;9.17;6.67;;;;;;;;;;5014688;28;20445;-56
2023/10/18 01:01:44;;;;;;;7.67;6.63;;;;;;;;;;5014430;28;20969;-56
2023/10/18 01:04:12;;;;;;;7.70;6.90;;;;;;;;;;5014422;28;20816;-56
2023/10/18 01:06:41;;;;;;;8.27;6.93;;;;;;;;;;5014309;28;20428;-58
2023/10/18 01:09:15;;;;;;;8.20;6.57;;;;;;;;;;5014344;28;21089;-58
2023/10/18 01:11:41;;;;;;;7.13;6.43;;;;;;;;;;5014266;28;20977;-59
2023/10/18 01:14:08;;;;;;;7.57;6.40;;;;;;;;;;5014284;28;20465;-59
2023/10/18 01:16:37;;;;;;;8.27;6.80;;;;;;;;;;5010787;28;21009;-59
2023/10/18 01:19:08;;;;;;;7.50;6.70;;;;;;;;;;5014374;28;20487;-59
2023/10/18 01:21:34;;;;;;;8.07;6.93;;;;;;;;;;5014021;28;20523;-59
2023/10/18 01:24:01;;;;;;;8.87;7.00;;;;;;;;;;5014228;28;20494;-58
2023/10/18 01:26:28;;;;;;;8.73;7.10;;;;;;;;;;5013970;28;20451;-58
2023/10/18 01:28:55;;;;;;;8.53;6.97;;;;;;;;;;5013919;28;20946;-59
2023/10/18 01:31:22;;;;;;;7.87;7.00;;;;;;;;;;5013700;28;20453;-59
2023/10/18 01:33:50;;;;;;;9.83;7.57;;;;;;;;;;5013896;28;20444;-58
2023/10/18 01:36:16;;;;;;;8.43;7.17;;;;;;;;;;5014095;28;20481;-59
2023/10/18 01:38:44;;;;;;;8.67;7.00;;;;;;;;;;5013800;28;20477;-59
2023/10/18 01:41:13;;;;;;;7.63;6.63;;;;;;;;;;5013759;28;20796;-58
2023/10/18 01:43:43;;;;;;;9.87;6.93;;;;;;;;;;5013368;28;20478;-59
2023/10/18 01:46:10;;;;;;;9.03;6.97;;;;;;;;;;5013589;28;20476;-58
2023/10/18 01:48:37;;;;;;;8.60;6.87;;;;;;;;;;5013495;28;20441;-58
2023/10/18 01:51:05;;;;;;;9.30;6.83;;;;;;;;;;5013697;28;20515;-58
2023/10/18 01:53:31;;;;;;;8.47;6.63;;;;;;;;;;5013505;28;20444;-59
2023/10/18 01:56:01;;;;;;;8.43;7.10;;;;;;;;;;5013080;28;20488;-59
2023/10/18 01:58:27;;;;;;;7.90;6.80;;;;;;;;;;5013009;28;20428;-58
2023/10/18 02:00:58;;;;;;;8.70;7.27;;;;;;;;;;5013339;28;20646;-58
2023/10/18 02:03:24;;;;;;;9.40;6.90;;;;;;;;;;5011638;28;20697;-58
2023/10/18 02:05:50;;;;;;;7.13;5.90;;;;;;;;;;5011636;28;20990;-58
2023/10/18 02:08:16;;;;;;;7.53;5.93;;;;;;;;;;5013441;28;20433;-58
2023/10/18 02:10:44;;;;;;;7.87;6.70;;;;;;;;;;5006514;28;20425;-58
2023/10/18 02:13:13;;;;;;;7.37;6.63;;;;;;;;;;5011492;28;20436;-58
2023/10/18 02:15:40;;;;;;;9.80;7.37;;;;;;;;;;5007931;28;20484;-59
2023/10/18 02:18:08;;;;;;;7.60;6.50;;;;;;;;;;5009683;28;20938;-59
2023/10/18 02:20:35;;;;;;;8.60;6.70;;;;;;;;;;5007959;28;20815;-58
2023/10/18 02:23:01;;;;;;;8.43;6.47;;;;;;;;;;5006332;28;20447;-58
2023/10/18 02:25:46;;;;;;;8.13;6.73;;;;;;;;;;5002786;28;20441;-58
2023/10/18 02:28:22;;;;;;;7.97;6.70;;;;;;;;;;5007939;28;20529;-58
2023/10/18 02:30:58;;;;;;;7.47;6.77;;;;;;;;;;5005930;28;20933;-58
2023/10/18 02:33:26;;;;;;;11.30;7.10;;;;;;;;;;5004412;28;20432;-58
2023/10/18 02:35:56;;;;;;;8.90;7.27;;;;;;;;;;5004081;28;20575;-58
2023/10/18 02:38:23;;;;;;;7.77;6.53;;;;;;;;;;5002637;28;20459;-58
2023/10/18 02:40:50;;;;;;;9.40;6.93;;;;;;;;;;5000829;28;20436;-58
2023/10/18 02:43:16;;;;;;;8.50;7.50;;;;;;;;;;5004290;28;20530;-58
2023/10/18 02:45:50;;;;;;;7.90;7.03;;;;;;;;;;5000860;28;20860;-58
2023/10/18 02:48:22;;;;;;;8.37;7.50;;;;;;;;;;5002664;28;20972;-58
2023/10/18 02:50:50;;;;;;;7.27;6.57;;;;;;;;;;5002329;28;20462;-58
2023/10/18 02:53:17;;;;;;;8.17;7.07;;;;;;;;;;5000946;28;20444;-58
2023/10/18 02:55:46;;;;;;;8.87;7.13;;;;;;;;;;5000732;28;20534;-59
2023/10/18 02:58:12;;;;;;;8.23;7.10;;;;;;;;;;5000606;28;20475;-58
2023/10/18 03:00:40;;;;;;;8.77;7.17;;;;;;;;;;5000375;28;20464;-58
2023/10/18 03:03:07;;;;;;;9.80;7.07;;;;;;;;;;5000382;28;20930;-58
2023/10/18 03:05:33;;;;;;;9.63;7.63;;;;;;;;;;4998765;28;20937;-58
2023/10/18 03:08:00;;;;;;;8.83;6.97;;;;;;;;;;5000007;28;20448;-58
2023/10/18 03:10:32;;;;;;;8.57;7.10;;;;;;;;;;5000417;28;20523;-58
2023/10/18 03:13:03;;;;;;;10.37;7.87;;;;;;;;;;4998619;28;20471;-58
2023/10/18 03:15:29;;;;;;;8.90;7.93;;;;;;;;;;4998545;28;20555;-58
2023/10/18 03:17:56;;;;;;;9.07;7.97;;;;;;;;;;5000184;28;20914;-58
2023/10/18 03:20:23;;;;;;;9.23;7.90;;;;;;;;;;4998427;28;20193;-57
2023/10/18 03:22:49;;;;;;;10.50;8.07;;;;;;;;;;5000167;28;20444;-57
2023/10/18 03:25:17;;;;;;;8.73;7.20;;;;;;;;;;4999543;28;20436;-58
2023/10/18 03:27:50;;;;;;;9.73;7.00;;;;;;;;;;5000092;28;20476;-58
2023/10/18 03:30:20;;;;;;;11.33;7.67;;;;;;;;;;4998412;28;20981;-58
2023/10/18 03:32:53;;;;;;;8.40;6.93;;;;;;;;;;4998497;28;20456;-58
2023/10/18 03:35:22;;;;;;;10.07;7.63;;;;;;;;;;5000083;28;20488;-58
2023/10/18 03:37:48;;;;;;;11.43;8.83;;;;;;;;;;4998404;28;20438;-58
2023/10/18 03:40:20;;;;;;;12.47;8.60;;;;;;;;;;4998397;28;21154;-58
2023/10/18 03:42:50;;;;;;;11.30;9.00;;;;;;;;;;5004928;28;20480;-58
2023/10/18 03:45:22;;;;;;;12.37;8.33;;;;;;;;;;5011814;28;20446;-58
2023/10/18 03:47:58;;;;;;;10.20;7.70;;;;;;;;;;5011788;28;20773;-58
2023/10/18 03:50:40;;;;;;;9.63;7.67;;;;;;;;;;5011861;28;20440;-58
2023/10/18 03:53:13;;;;;;;9.53;7.20;;;;;;;;;;5011660;28;20435;-58
2023/10/18 03:55:39;;;;;;;8.33;6.77;;;;;;;;;;5011615;28;20464;-58
2023/10/18 03:58:07;;;;;;;8.30;6.60;;;;;;;;;;5011575;28;20946;-58
2023/10/18 04:00:46;;;;;;;8.27;7.27;;;;;;;;;;5011714;28;20451;-58
2023/10/18 04:03:15;;;;;;;10.10;7.27;;;;;;;;;;5011700;28;20440;-58
2023/10/18 04:05:52;;;;;;;7.47;6.67;;;;;;;;;;5011615;28;20810;-58
2023/10/18 04:08:18;;;;;;;7.57;6.53;;;;;;;;;;5011875;28;20436;-58
2023/10/18 04:10:44;;;;;;;8.33;7.53;;;;;;;;;;5011580;28;20503;-58
2023/10/18 04:13:12;;;;;;;8.90;7.40;;;;;;;;;;5011593;28;20525;-58
2023/10/18 04:15:39;;;;;;;9.33;6.60;;;;;;;;;;5011346;28;20472;-57
2023/10/18 04:20:34;;;;;;;8.13;7.13;;;;;;;;;;5013230;28;20938;-58
2023/10/18 04:23:12;;;;;;;7.37;6.60;;;;;;;;;;5015317;28;20464;-57
2023/10/18 04:25:38;;;;;;;7.47;6.77;;;;;;;;;;5015204;28;20439;-58
2023/10/18 04:28:04;;;;;;;7.17;6.47;;;;;;;;;;5015114;28;20444;-58
2023/10/18 04:30:32;;;;;;;7.87;6.80;;;;;;;;;;5015237;28;20205;-58
2023/10/18 04:33:00;;;;;;;8.70;6.63;;;;;;;;;;5014885;28;20461;-58
2023/10/18 04:35:29;;;;;;;7.70;6.47;;;;;;;;;;5014989;28;20476;-57
2023/10/18 04:37:55;;;;;;;8.73;6.90;;;;;;;;;;5014901;28;21167;-58
2023/10/18 04:40:25;;;;;;;8.37;6.70;;;;;;;;;;5015003;28;20479;-58
2023/10/18 04:42:51;;;;;;;7.73;6.63;;;;;;;;;;5014688;28;20530;-58
2023/10/18 04:45:18;;;;;;;8.17;6.77;;;;;;;;;;5014957;28;20433;-58
2023/10/18 04:47:49;;;;;;;7.70;6.47;;;;;;;;;;5015004;28;20432;-58
2023/10/18 04:50:19;;;;;;;8.77;6.30;;;;;;;;;;5015038;28;20444;-58
2023/10/18 04:52:47;;;;;;;7.60;6.80;;;;;;;;;;5014758;28;20528;-58
2023/10/18 04:55:14;;;;;;;7.13;6.07;;;;;;;;;;5014800;28;20567;-58
2023/10/18 04:57:40;;;;;;;7.03;5.97;;;;;;;;;;5014603;28;20440;-58
2023/10/18 05:00:35;;;;;;;7.27;6.17;;;;;;;;;;5014416;28;20528;-58
2023/10/18 05:03:07;;;;;;;8.43;7.13;;;;;;;;;;5014631;28;20444;-58
2023/10/18 05:05:37;;;;;;;8.20;6.63;;;;;;;;;;5014587;28;20436;-58
2023/10/18 05:08:04;;;;;;;9.00;6.80;;;;;;;;;;5014419;28;20436;-59
2023/10/18 05:10:30;;;;;;;9.97;6.87;;;;;;;;;;5014553;28;20448;-58
2023/10/18 05:13:10;;;;;;;8.50;7.00;;;;;;;;;;5014254;28;20498;-58
2023/10/18 05:15:36;;;;;;;6.90;6.20;;;;;;;;;;5014234;28;20575;-58
2023/10/18 05:18:15;;;;;;;8.53;6.73;;;;;;;;;;5014338;28;20436;-58
2023/10/18 05:20:47;;;;;;;9.47;6.50;;;;;;;;;;5014206;28;20447;-58
2023/10/18 05:23:24;;;;;;;9.30;7.10;;;;;;;;;;5014098;28;20440;-58
2023/10/18 05:25:56;;;;;;;10.37;7.10;;;;;;;;;;5014134;28;20976;-58
2023/10/18 05:28:26;;;;;;;8.80;7.17;;;;;;;;;;5014044;28;20862;-58
2023/10/18 05:43:53;;;;;;;7.50;6.70;;;;;;;;;;4999747;28;20284;-58
2023/10/18 05:46:20;;;;;;;9.03;7.03;;;;;;;;;;4999432;28;20524;-58
2023/10/18 05:48:47;;;;;;;9.20;6.83;;;;;;;;;;4999125;28;20437;-58
2023/10/18 05:54:05;;;;;;;8.20;6.93;;;;;;;;;;5001265;28;20416;-58
2023/10/18 05:56:34;;;;;;;7.77;6.63;;;;;;;;;;5001331;28;20504;-58
2023/10/18 06:01:45;;;;;;;8.30;7.07;;;;;;;;;;4998410;28;20437;-58
2023/10/18 06:04:14;;;;;;;8.10;7.30;;;;;;;;;;4999596;28;20583;-58
2023/10/18 06:06:40;;;;;;;8.07;7.27;;;;;;;;;;4999637;28;20504;-58
2023/10/18 06:09:11;;;;;;;9.77;7.63;;;;;;;;;;4999537;28;20465;-58
2023/10/18 06:11:37;;;;;;;8.60;7.70;;;;;;;;;;4999764;28;20449;-58
2023/10/18 06:14:05;;;;;;;9.00;7.33;;;;;;;;;;4999587;28;20436;-58
2023/10/18 06:16:34;;;;;;;8.30;7.50;;;;;;;;;;4997976;28;20487;-57
2023/10/18 06:19:02;;;;;;;10.63;8.17;;;;;;;;;;4999668;28;20429;-58
2023/10/18 06:21:36;;;;;;;10.17;8.60;;;;;;;;;;4999400;28;20884;-58
2023/10/18 06:24:09;;;;;;;9.07;8.13;;;;;;;;;;4999485;28;20435;-58
2023/10/18 06:26:36;;;;;;;9.60;8.40;;;;;;;;;;4997781;28;20433;-58
2023/10/18 06:29:08;;;;;;;8.97;7.43;;;;;;;;;;5001145;28;20437;-58
2023/10/18 06:31:40;;;;;;;10.73;8.67;;;;;;;;;;4999269;28;20572;-58
2023/10/18 06:34:10;;;;;;;11.23;8.50;;;;;;;;;;4999056;28;20972;-57
2023/10/18 06:36:39;;;;;;;11.03;8.37;;;;;;;;;;4999018;28;20477;-58
2023/10/18 06:39:05;;;;;;;8.63;7.73;;;;;;;;;;4999127;28;20432;-58
2023/10/18 06:41:31;;;;;;;9.00;7.83;;;;;;;;;;4999042;28;20441;-58
2023/10/18 06:44:00;;;;;;;9.60;7.90;;;;;;;;;;5000109;28;20432;-58
2023/10/18 06:46:26;;;;;;;9.73;8.73;;;;;;;;;;4998855;28;20449;-58
2023/10/18 06:48:54;;;;;;;11.63;8.67;;;;;;;;;;5000704;28;20942;-58
2023/10/18 06:51:30;;;;;;;9.87;8.23;;;;;;;;;;5000609;28;20436;-58
2023/10/18 06:53:58;;;;;;;10.17;9.17;;;;;;;;;;4998716;28;20451;-58
2023/10/18 06:56:26;;;;;;;9.90;8.90;;;;;;;;;;5013729;28;20479;-58
2023/10/18 06:58:53;;;;;;;9.37;8.43;;;;;;;;;;5018442;28;20471;-58
2023/10/18 07:01:30;;;;;;;12.90;8.93;;;;;;;;;;5018805;28;20440;-58
2023/10/18 07:03:56;;;;;;;9.77;8.63;;;;;;;;;;5018460;28;20438;-58
2023/10/18 07:06:29;;;;;;;13.10;9.80;;;;;;;;;;5018373;28;20427;-57
2023/10/18 07:08:55;;;;;;;11.10;9.90;;;;;;;;;;5018342;28;20462;-57
2023/10/18 07:11:23;;;;;;;12.00;10.37;;;;;;;;;;5019926;28;20440;-57
2023/10/18 07:13:50;;;;;;;12.83;10.43;;;;;;;;;;5020142;28;20444;-57
2023/10/18 07:21:43;;;;;;;12.67;11.37;;;;;;;;;;5018298;28;20435;-57
2023/10/18 07:24:09;;;;;;;14.50;11.10;;;;;;;;;;5019878;28;20789;-57
2023/10/18 07:26:37;;;;;;;13.53;11.63;;;;;;;;;;5018219;28;20200;-58
2023/10/18 07:29:09;;;;;;;13.57;11.47;;;;;;;;;;5018158;28;20450;-57
2023/10/18 07:31:38;;;;;;;12.90;10.43;;;;;;;;;;5018011;28;21028;-58
2023/10/18 07:34:07;;;;;;;12.77;11.40;;;;;;;;;;5017852;28;20538;-58
2023/10/18 07:36:37;;;;;;;12.70;11.40;;;;;;;;;;5017885;28;21036;-57
2023/10/18 07:39:04;;;;;;;15.07;11.93;;;;;;;;;;5018045;28;20807;-58
2023/10/18 07:41:30;;;;;;;13.33;11.90;;;;;;;;;;5016731;28;20451;-58
2023/10/18 07:44:05;;;;;;;13.30;11.47;;;;;;;;;;5018344;28;20203;-58
2023/10/18 07:46:34;;;;;;;14.53;11.23;;;;;;;;;;5018114;28;20279;-57
2023/10/18 07:49:15;;;;;;;14.03;11.50;;;;;;;;;;5019376;28;21003;-58
2023/10/18 07:51:48;;;;;;;14.00;11.70;;;;;;;;;;5018026;28;20668;-58
2023/10/18 07:54:15;;;;;;;12.40;11.10;;;;;;;;;;5018850;28;20200;-58
2023/10/18 07:56:48;;;;;;;13.03;11.63;;;;;;;;;;5020135;28;20514;-58
2023/10/18 07:59:31;;;;;;;12.87;11.57;;;;;;;;;;5021731;28;20196;-58
2023/10/18 08:02:13;;;;;;;11.70;10.50;;;;;;;;;;5021762;28;20201;-56
2023/10/18 08:04:40;;;;;;;13.47;11.10;;;;;;;;;;5021802;28;20569;-56
2023/10/18 08:07:10;;;;;;;11.67;10.43;;;;;;;;;;5021764;28;20200;-56
2023/10/18 08:09:39;;;;;;;12.07;9.67;;;;;;;;;;5021854;28;20650;-56
2023/10/18 08:12:15;;;;;;;11.33;9.70;;;;;;;;;;5021440;28;20232;-56
2023/10/18 08:14:46;;;;;;;11.27;10.17;;;;;;;;;;5021590;28;20745;-56
2023/10/18 08:17:29;;;;;;;11.00;9.90;;;;;;;;;;5021612;28;20209;-56
2023/10/18 08:20:17;;;;;;;9.20;8.23;;;;;;;;;;5023117;28;20240;-57
2023/10/18 08:22:43;;;;;;;10.63;8.63;;;;;;;;;;5021513;28;20205;-56
2023/10/18 08:25:21;;;;;;;10.33;9.33;;;;;;;;;;5023126;28;20215;-56
2023/10/18 08:27:47;;;;;;;9.87;8.87;;;;;;;;;;5021517;28;20212;-56
2023/10/18 08:33:05;;;;;;;11.13;8.93;;;;;;;;;;5021759;28;20300;-55
2023/10/18 08:35:31;;;;;;;10.03;8.43;;;;;;;;;;5021186;28;21226;-57
2023/10/18 08:38:01;;;;;;;9.20;8.33;;;;;;;;;;5022882;28;20201;-55
2023/10/18 08:40:28;;;;;;;8.80;7.97;;;;;;;;;;5021294;28;20207;-54
2023/10/18 08:42:57;;;;;;;10.43;7.83;;;;;;;;;;5013882;28;20248;-55
2023/10/18 08:45:25;;;;;;;10.60;8.20;;;;;;;;;;5011847;28;20205;-55
2023/10/18 08:47:58;;;;;;;10.60;8.30;;;;;;;;;;5014762;28;20726;-55
2023/10/18 08:50:25;;;;;;;9.53;8.23;;;;;;;;;;5014636;28;20236;-55
2023/10/18 08:52:51;;;;;;;9.47;7.90;;;;;;;;;;5014713;28;20197;-55
2023/10/18 08:55:43;;;;;;;9.20;8.27;;;;;;;;;;5017790;28;20219;-56
2023/10/18 08:58:10;;;;;;;9.13;8.17;;;;;;;;;;5034083;28;20311;-55
2023/10/18 09:03:10;;;;;;;9.53;8.17;;;;;;;;;;5033892;28;20200;-55
2023/10/18 09:05:36;;;;;;;9.27;8.33;;;;;;;;;;5033440;28;20570;-55
2023/10/18 09:08:07;;;;;;;9.37;7.57;;;;;;;;;;5034011;28;20197;-55
2023/10/18 09:15:28;;;;;;;11.93;7.90;;;;;;;;;;5033686;28;20792;-53
2023/10/18 09:17:56;;;;;;;9.77;8.23;;;;;;;;;;5034197;28;20204;-53
2023/10/18 09:20:25;;;;;;;8.87;7.87;;;;;;;;;;5034175;28;20253;-53
2023/10/18 09:22:52;;;;;;;9.97;7.70;;;;;;;;;;5034168;28;20284;-54
2023/10/18 09:25:20;;;;;;;9.70;8.30;;;;;;;;;;5034161;28;20201;-54
2023/10/18 09:27:46;;;;;;;9.93;8.83;;;;;;;;;;5034278;28;20201;-54
2023/10/18 09:30:18;;;;;;;10.90;8.70;;;;;;;;;;5033912;28;20199;-54
2023/10/18 09:32:45;;;;;;;10.73;9.23;;;;;;;;;;5033920;28;20726;-54
2023/10/18 09:35:13;;;;;;;9.17;8.13;;;;;;;;;;5033750;28;20224;-54
2023/10/18 09:37:39;;;;;;;10.50;8.97;;;;;;;;;;5031869;28;20208;-54
2023/10/18 09:40:06;;;;;;;10.83;8.83;;;;;;;;;;5033545;28;20197;-54
2023/10/18 09:42:32;;;;;;;10.40;8.17;;;;;;;;;;5033369;28;20722;-53
2023/10/18 09:44:59;;;;;;;14.93;9.70;;;;;;;;;;5033254;28;20225;-54
2023/10/18 09:47:27;;;;;;;11.43;8.93;;;;;;;;;;5033075;28;20643;-54
2023/10/18 09:49:55;;;;;;;11.00;9.20;;;;;;;;;;5033417;28;20231;-53
2023/10/18 09:52:24;;;;;;;11.43;8.70;;;;;;;;;;5033061;28;20200;-53
2023/10/18 09:54:50;;;;;;;11.67;8.43;;;;;;;;;;5033081;28;20695;-53
2023/10/18 09:57:23;;;;;;;9.33;8.33;;;;;;;;;;5033186;28;20221;-53
2023/10/18 09:59:50;;;;;;;11.23;9.07;;;;;;;;;;5033066;28;20211;-54
2023/10/18 10:02:17;;;;;;;10.87;8.43;;;;;;;;;;5032939;28;20185;-54
2023/10/18 10:04:44;;;;;;;12.63;8.50;;;;;;;;;;5032970;28;20295;-53
2023/10/18 10:07:37;;;;;;;10.03;8.00;;;;;;;;;;5032953;28;20193;-53
2023/10/18 10:10:08;;;;;;;10.23;9.07;;;;;;;;;;5032884;28;20565;-53
2023/10/18 10:12:34;;;;;;;9.57;8.57;;;;;;;;;;5032834;28;20211;-54
2023/10/18 10:15:00;;;;;;;8.57;7.47;;;;;;;;;;5032576;28;20197;-53
2023/10/18 10:17:28;;;;;;;9.97;8.13;;;;;;;;;;5031646;28;20296;-53
2023/10/18 10:19:57;;;;;;;10.23;8.17;;;;;;;;;;5032384;28;20703;-54
2023/10/18 10:22:24;;;;;;;10.43;8.13;;;;;;;;;;5032720;28;20204;-54
2023/10/18 10:24:59;;;;;;;11.23;8.10;;;;;;;;;;5032254;28;20586;-54
2023/10/18 10:27:27;;;;;;;11.17;8.17;;;;;;;;;;5032612;28;20213;-54
2023/10/18 10:29:56;;;;;;;10.23;7.67;;;;;;;;;;5032875;28;20205;-54
2023/10/18 10:32:24;;;;;;;8.60;6.63;;;;;;;;;;5032597;28;20299;-54
2023/10/18 10:34:52;;;;;;;8.13;7.23;;;;;;;;;;5032712;28;20197;-54
2023/10/18 10:37:18;;;;;;;9.73;7.57;;;;;;;;;;5032734;28;20243;-54
2023/10/18 10:39:49;;;;;;;8.17;7.27;;;;;;;;;;5032723;28;20291;-53
2023/10/18 10:42:44;;;;;;;8.83;7.73;;;;;;;;;;5032402;28;20698;-53
2023/10/18 10:47:44;;;;;;;7.90;6.40;;;;;;;;;;5032448;28;20554;-53
2023/10/18 10:50:11;;;;;;;8.43;6.90;;;;;;;;;;5032526;28;20200;-54
2023/10/18 10:52:40;;;;;;;7.10;5.93;;;;;;;;;;5032365;28;20193;-54
2023/10/18 10:55:21;;;;;;;7.50;6.70;;;;;;;;;;5032436;28;20209;-53
2023/10/18 10:57:47;;;;;;;9.13;7.17;;;;;;;;;;5030132;28;20545;-54
2023/10/18 11:00:50;;;;;;;7.90;6.87;;;;;;;;;;5032326;28;20618;-54
2023/10/18 11:03:27;;;;;;;7.80;6.90;;;;;;;;;;5031976;28;20723;-54
2023/10/18 11:05:53;;;;;;;7.83;6.87;;;;;;;;;;5032474;28;20184;-54
2023/10/18 11:08:19;;;;;;;8.43;6.63;;;;;;;;;;5032252;28;20227;-54
2023/10/18 11:10:46;;;;;;;12.93;7.60;;;;;;;;;;5032365;28;20212;-54
2023/10/18 11:13:13;;;;;;;12.60;8.17;;;;;;;;;;5032131;28;20207;-54
2023/10/18 11:15:42;;;;;;;10.10;7.13;;;;;;;;;;5031982;28;20282;-54
2023/10/18 11:18:20;;;;;;;8.30;7.40;;;;;;;;;;5032049;28;20217;-54
2023/10/18 11:21:05;;;;;;;8.43;6.43;;;;;;;;;;5032225;28;20208;-54
2023/10/18 11:23:33;;;;;;;7.93;5.93;;;;;;;;;;5032021;28;20656;-54
2023/10/18 11:25:59;;;;;;;9.60;6.60;;;;;;;;;;5031674;28;20200;-54
2023/10/18 11:28:29;;;;;;;8.40;6.47;;;;;;;;;;5029611;28;20207;-55
2023/10/18 11:30:57;;;;;;;9.10;7.03;;;;;;;;;;5031790;28;20280;-53
2023/10/18 11:33:32;;;;;;;8.70;5.80;;;;;;;;;;5031754;28;20208;-54
2023/10/18 11:36:02;;;;;;;9.50;6.17;;;;;;;;;;5031703;28;20238;-55
2023/10/18 11:38:33;;;;;;;7.50;6.80;;;;;;;;;;5031611;28;20201;-53
2023/10/18 11:41:04;;;;;;;9.60;7.13;;;;;;;;;;5031979;28;20572;-53
2023/10/18 11:43:39;;;;;;;6.97;5.57;;;;;;;;;;5031681;28;20239;-53
2023/10/18 11:46:07;;;;;;;9.87;7.00;;;;;;;;;;5031842;28;20192;-53
2023/10/18 11:48:33;;;;;;;6.90;6.10;;;;;;;;;;5031651;28;20303;-54
2023/10/18 11:50:59;;;;;;;7.37;6.17;;;;;;;;;;5031648;28;20291;-54
2023/10/18 11:53:26;;;;;;;9.17;6.93;;;;;;;;;;5031621;28;20288;-55
2023/10/18 11:55:55;;;;;;;8.60;6.10;;;;;;;;;;5031630;28;20686;-54
2023/10/18 11:58:21;;;;;;;8.40;6.73;;;;;;;;;;5031369;28;20207;-54
2023/10/18 12:00:48;;;;;;;8.63;6.60;;;;;;;;;;5031857;28;20192;-54
2023/10/18 12:03:15;;;;;;;8.43;6.43;;;;;;;;;;5031701;28;20189;-53
2023/10/18 12:05:44;;;;;;;8.60;6.30;;;;;;;;;;5031516;28;20197;-53
2023/10/18 12:08:13;;;;;;;7.93;7.00;;;;;;;;;;5031587;28;20263;-54
2023/10/18 12:10:39;;;;;;;8.13;7.30;;;;;;;;;;5031356;28;20294;-54
2023/10/18 12:13:12;;;;;;;8.50;7.07;;;;;;;;;;5031307;28;20227;-54
2023/10/18 12:15:39;;;;;;;8.50;7.20;;;;;;;;;;5021132;28;20236;-53
2023/10/18 12:18:05;;;;;;;7.73;6.10;;;;;;;;;;5021347;28;20276;-53
2023/10/18 12:20:35;;;;;;;8.30;6.80;;;;;;;;;;5017898;28;20197;-54
2023/10/18 12:23:02;;;;;;;9.60;6.50;;;;;;;;;;5018173;28;20284;-54
2023/10/18 12:25:28;;;;;;;7.53;6.47;;;;;;;;;;5017746;28;20201;-53
2023/10/18 12:27:55;;;;;;;8.20;7.17;;;;;;;;;;5021248;28;20295;-54
2023/10/18 12:30:27;;;;;;;11.43;6.53;;;;;;;;;;5019275;28;20548;-54
2023/10/18 12:32:53;;;;;;;9.23;6.77;;;;;;;;;;5021322;28;20224;-54
2023/10/18 12:35:20;;;;;;;9.93;7.43;;;;;;;;;;5020995;28;20224;-54
2023/10/18 12:37:51;;;;;;;7.67;6.60;;;;;;;;;;5019501;28;20205;-54
2023/10/18 12:43:05;;;;;;;7.07;6.33;;;;;;;;;;5026368;28;20244;-56
2023/10/18 12:45:41;;;;;;;6.60;6.00;;;;;;;;;;5022850;28;20207;-53
2023/10/18 12:48:09;;;;;;;7.37;6.57;;;;;;;;;;5022859;28;20200;-54
2023/10/18 12:50:35;;;;;;;8.43;6.50;;;;;;;;;;5022759;28;20678;-55
2023/10/18 12:55:53;;;;;;;7.03;6.30;;;;;;;;;;5024435;28;20231;-54
2023/10/18 12:58:19;;;;;;;6.73;5.67;;;;;;;;;;5024255;28;20270;-55
2023/10/18 13:00:46;;;;;;;7.57;6.53;;;;;;;;;;5024408;28;20208;-54
2023/10/18 13:05:43;;;;;;;7.17;6.47;;;;;;;;;;5022419;28;20199;-54
2023/10/18 13:08:22;;;;;;;11.10;6.33;;;;;;;;;;5022590;28;20228;-54
2023/10/18 13:10:57;;;;;;;8.97;5.97;;;;;;;;;;5022569;28;20238;-55
2023/10/18 13:13:23;;;;;;;6.53;5.83;;;;;;;;;;5023939;28;20196;-55
2023/10/18 13:15:49;;;;;;;7.37;6.20;;;;;;;;;;5020364;28;20232;-53
2023/10/18 13:18:16;;;;;;;7.10;5.50;;;;;;;;;;5029123;28;20197;-54
2023/10/18 13:20:45;;;;;;;5.67;5.17;;;;;;;;;;5022831;28;20196;-55
2023/10/18 13:23:18;;;;;;;6.53;5.07;;;;;;;;;;5023893;28;20193;-55
2023/10/18 13:25:54;;;;;;;8.60;5.83;;;;;;;;;;5023844;28;20663;-55
2023/10/18 13:31:07;;;;;;;7.43;5.43;;;;;;;;;;5020302;28;20311;-54
2023/10/18 13:33:36;;;;;;;6.77;4.83;;;;;;;;;;5022091;28;20204;-54
2023/10/18 13:36:02;;;;;;;5.77;5.17;;;;;;;;;;5022172;28;20232;-53
2023/10/18 13:38:29;;;;;;;5.73;4.93;;;;;;;;;;5020368;28;20197;-53
2023/10/18 13:40:56;;;;;;;5.47;4.97;;;;;;;;;;5021864;28;20663;-53
2023/10/18 13:43:24;;;;;;;6.23;5.10;;;;;;;;;;5019811;28;20279;-53
2023/10/18 13:45:56;;;;;;;8.50;5.40;;;;;;;;;;5019978;28;20208;-53
2023/10/18 13:48:24;;;;;;;6.00;5.07;;;;;;;;;;5021611;28;20196;-54
2023/10/18 13:50:53;;;;;;;4.77;4.27;;;;;;;;;;5020095;28;20623;-54
2023/10/18 13:53:21;;;;;;;7.10;5.43;;;;;;;;;;5019907;28;20205;-53
2023/10/18 13:55:48;;;;;;;6.33;5.23;;;;;;;;;;5020134;28;20228;-53
2023/10/18 13:58:14;;;;;;;12.47;5.33;;;;;;;;;;5019902;28;20201;-55
2023/10/18 14:00:40;;;;;;;5.17;4.67;;;;;;;;;;5021633;28;20197;-54
2023/10/18 14:03:07;;;;;;;7.07;5.17;;;;;;;;;;5019646;28;20205;-54
2023/10/18 14:05:39;;;;;;;6.03;5.23;;;;;;;;;;5019700;28;20226;-54
2023/10/18 14:08:07;;;;;;;8.60;5.60;;;;;;;;;;5021389;28;20209;-54
2023/10/18 14:10:35;;;;;;;7.70;5.50;;;;;;;;;;5021392;28;20654;-53
2023/10/18 14:13:03;;;;;;;9.33;5.93;;;;;;;;;;5021339;28;20686;-55
2023/10/18 14:15:30;;;;;;;6.57;5.53;;;;;;;;;;5021204;28;20252;-55
2023/10/18 14:17:56;;;;;;;7.93;6.00;;;;;;;;;;5019460;28;20204;-55
2023/10/18 14:20:25;;;;;;;6.50;5.67;;;;;;;;;;5021117;28;20200;-55
2023/10/18 14:22:53;;;;;;;6.23;5.63;;;;;;;;;;5019285;28;20300;-54
2023/10/18 14:25:19;;;;;;;7.27;5.90;;;;;;;;;;5021132;28;20283;-54
2023/10/18 14:27:45;;;;;;;7.07;5.40;;;;;;;;;;5019353;28;20197;-55
2023/10/18 14:30:13;;;;;;;6.77;6.07;;;;;;;;;;5019346;28;20288;-55
2023/10/18 14:32:39;;;;;;;8.20;6.77;;;;;;;;;;5024174;28;20247;-54
2023/10/18 14:35:06;;;;;;;6.97;6.20;;;;;;;;;;5022130;28;20250;-54
2023/10/18 14:37:32;;;;;;;6.20;5.33;;;;;;;;;;5020931;28;20292;-54
2023/10/18 14:39:58;;;;;;;7.30;6.60;;;;;;;;;;5020892;28;21256;-54
2023/10/18 14:42:28;;;;;;;6.43;5.70;;;;;;;;;;5020490;28;20233;-54
2023/10/18 14:44:54;;;;;;;10.80;6.37;;;;;;;;;;5022502;28;20215;-55
2023/10/18 14:47:22;;;;;;;9.53;7.67;;;;;;;;;;5020634;28;20193;-54
2023/10/18 14:49:48;;;;;;;7.83;6.47;;;;;;;;;;5020610;28;20208;-54
2023/10/18 14:52:19;;;;;;;7.20;6.40;;;;;;;;;;5018641;28;20239;-54
2023/10/18 14:54:45;;;;;;;8.70;6.87;;;;;;;;;;5020360;28;20727;-54
2023/10/18 14:57:11;;;;;;;7.23;6.43;;;;;;;;;;5018629;28;20260;-54
2023/10/18 14:59:37;;;;;;;8.20;7.27;;;;;;;;;;5020209;28;20205;-55
2023/10/18 15:02:03;;;;;;;8.47;6.57;;;;;;;;;;5020064;28;21005;-54
2023/10/18 15:04:31;;;;;;;7.27;6.57;;;;;;;;;;5019615;28;20205;-53
2023/10/18 15:06:57;;;;;;;9.17;7.00;;;;;;;;;;5018560;28;20185;-54
2023/10/18 15:09:24;;;;;;;7.07;6.37;;;;;;;;;;5018474;28;20207;-54
2023/10/18 15:11:51;;;;;;;10.40;6.97;;;;;;;;;;5021894;28;20196;-54
2023/10/18 15:14:19;;;;;;;7.27;6.17;;;;;;;;;;5020286;28;20208;-53
2023/10/18 15:16:45;;;;;;;8.43;6.53;;;;;;;;;;5020199;28;20229;-53
2023/10/18 15:19:14;;;;;;;7.80;6.53;;;;;;;;;;5020112;28;20208;-54
2023/10/18 15:21:42;;;;;;;7.77;6.03;;;;;;;;;;5019888;28;20201;-54
2023/10/18 15:24:08;;;;;;;6.73;6.13;;;;;;;;;;5020086;28;20205;-55
2023/10/18 15:26:38;;;;;;;9.10;6.30;;;;;;;;;;5021273;28;20220;-55
2023/10/18 15:29:04;;;;;;;7.43;6.00;;;;;;;;;;5019052;28;20574;-54
2023/10/18 15:31:30;;;;;;;9.17;6.50;;;;;;;;;;5017706;28;20209;-55
2023/10/18 15:33:56;;;;;;;7.30;6.60;;;;;;;;;;5017621;28;20319;-55
2023/10/18 15:36:23;;;;;;;6.33;5.70;;;;;;;;;;5019324;28;20303;-55
2023/10/18 15:38:54;;;;;;;6.90;5.97;;;;;;;;;;5018407;28;20235;-55
2023/10/18 15:41:21;;;;;;;6.90;6.20;;;;;;;;;;5017566;28;20304;-54